Cape Hatteras National Seash, North Carolina
Current Conditions -  °F | °C
As of 5:55 PM on Wednesday 22 Oct 2014 (Local Time) from KMQI Reporting Station
Overcast Overcast  
Wind Chill: 57°   Ceiling: 2000
Heat Index: 57°   Visibility: 10mi
Dew Point: 51°   Wind: 16mph
Humidity: 79%   Direction: 310°NW
Pressure: 29.85"   Gusts: 26mph
Location:  35.8834°N, 75.6616°W
Report Text: KMQI 222155Z AUTO 31014G23KT 10SM BKN020 BKN024 OVC029 14/11 A2985 RMK AO2 T01400105
Loading
Personal Weather Stations






























Interactive Weather Map
Tropical Storm Tracking
New forecast layout! Learn more

10-Day Weather Forecast

Advertisements
Track Severe Weather on mobile